Time;durP1;ratioP1;P1;durP2;ratioP2;P2;SDS_P1;SDS_P2;PMS_P1;PMS_P2;Temp;Humidity;BMP_temperature;BMP_pressure;BME280_temperature;BME280_humidity;BME280_pressure;Samples;Min_cycle;Max_cycle;Signal;HPM_P1;HPM_P2
2022/07/17 00:00:53;;;;;;;8.13;7.43;;;21.70;99.10;;;;;;6226565;28;20236;-67
2022/07/17 00:03:58;;;;;;;7.70;7.10;;;21.60;99.10;;;;;;6226688;28;20225;-67
2022/07/17 00:07:01;;;;;;;7.40;6.83;;;21.50;99.30;;;;;;6221908;28;20225;-68
2022/07/17 00:10:05;;;;;;;7.73;7.13;;;21.50;99.50;;;;;;6225317;28;20625;-67
2022/07/17 00:13:09;;;;;;;7.57;6.97;;;21.50;99.50;;;;;;6225796;28;20236;-67
2022/07/17 00:16:12;;;;;;;7.53;6.90;;;21.50;99.50;;;;;;6225212;28;20237;-64
2022/07/17 00:19:17;;;;;;;8.23;7.63;;;21.40;99.50;;;;;;6225570;28;20295;-65
2022/07/17 00:22:21;;;;;;;8.27;6.80;;;21.30;99.60;;;;;;6225848;28;20355;-65
2022/07/17 00:25:25;;;;;;;7.57;6.80;;;21.20;99.60;;;;;;6225758;28;20251;-65
2022/07/17 00:28:28;;;;;;;7.67;7.07;;;21.10;99.50;;;;;;6225776;28;20311;-65
2022/07/17 00:31:32;;;;;;;8.40;7.70;;;21.00;99.80;;;;;;6225612;28;20319;-65
2022/07/17 00:34:36;;;;;;;8.03;7.43;;;20.90;99.90;;;;;;6225797;28;20690;-64
2022/07/17 00:37:41;;;;;;;7.57;6.97;;;20.80;99.90;;;;;;6225685;28;20229;-64
2022/07/17 00:40:44;;;;;;;7.13;6.53;;;20.80;99.90;;;;;;6225280;28;20236;-64
2022/07/17 00:43:48;;;;;;;7.80;7.20;;;20.70;99.90;;;;;;6225233;28;20225;-64
2022/07/17 00:46:52;;;;;;;7.40;6.90;;;20.80;99.90;;;;;;6224928;28;20233;-64
2022/07/17 00:49:56;;;;;;;8.50;7.37;;;20.80;99.90;;;;;;6225275;28;20693;-65
2022/07/17 00:52:59;;;;;;;8.17;7.60;;;20.90;99.90;;;;;;6225142;28;20229;-65
2022/07/17 00:56:03;;;;;;;7.40;6.90;;;20.80;99.90;;;;;;6224996;28;20304;-65
2022/07/17 00:59:07;;;;;;;7.73;7.00;;;20.80;99.90;;;;;;6224891;28;20237;-65
2022/07/17 01:02:13;;;;;;;6.90;6.40;;;20.80;99.90;;;;;;6225306;28;20225;-65
2022/07/17 01:05:19;;;;;;;8.10;7.30;;;20.80;99.90;;;;;;6225128;28;20225;-64
2022/07/17 01:08:23;;;;;;;7.63;7.03;;;20.80;99.90;;;;;;6225559;28;20233;-64
2022/07/17 01:11:27;;;;;;;7.37;6.87;;;20.70;99.90;;;;;;6225123;28;20610;-63
2022/07/17 01:14:31;;;;;;;7.23;6.63;;;20.70;99.90;;;;;;6225219;28;20236;-63
2022/07/17 01:17:34;;;;;;;7.20;6.70;;;20.70;99.90;;;;;;6225264;28;20229;-63
2022/07/17 01:20:41;;;;;;;7.30;6.70;;;20.60;99.90;;;;;;6228075;28;20312;-63
2022/07/17 01:23:46;;;;;;;6.73;6.23;;;20.60;99.90;;;;;;6229819;28;20243;-64
2022/07/17 01:26:50;;;;;;;6.97;6.47;;;20.60;99.90;;;;;;6229793;28;20275;-64
2022/07/17 01:29:56;;;;;;;7.53;6.93;;;20.50;99.90;;;;;;6229599;28;20338;-65
2022/07/17 01:33:00;;;;;;;7.97;7.20;;;20.40;99.90;;;;;;6229537;28;20255;-65
2022/07/17 01:36:03;;;;;;;7.43;6.73;;;20.40;99.90;;;;;;6229522;28;20229;-65
2022/07/17 01:39:08;;;;;;;6.67;6.17;;;20.20;99.90;;;;;;6229614;28;20233;-64
2022/07/17 01:42:11;;;;;;;6.57;5.97;;;20.20;99.90;;;;;;6229878;28;20221;-64
2022/07/17 01:45:16;;;;;;;7.50;6.80;;;20.20;99.90;;;;;;6229275;28;20687;-64
2022/07/17 01:48:26;;;;;;;7.57;6.97;;;20.10;99.90;;;;;;6229645;28;20683;-65
2022/07/17 01:51:30;;;;;;;8.20;7.43;;;20.00;99.90;;;;;;6229487;28;20233;-65
2022/07/17 01:54:35;;;;;;;7.57;6.87;;;20.00;99.90;;;;;;6229298;28;20225;-65
2022/07/17 01:57:39;;;;;;;7.90;7.20;;;20.10;99.90;;;;;;6229618;28;20205;-65
2022/07/17 02:00:43;;;;;;;7.50;6.90;;;20.10;99.90;;;;;;6229361;28;20237;-65
2022/07/17 02:03:46;;;;;;;6.97;6.37;;;20.10;99.90;;;;;;6229347;28;20241;-65
2022/07/17 02:06:49;;;;;;;7.43;6.73;;;19.90;99.90;;;;;;6229256;28;20674;-65
2022/07/17 02:09:54;;;;;;;6.73;6.13;;;19.90;99.90;;;;;;6229305;28;20232;-65
2022/07/17 02:12:58;;;;;;;6.67;6.27;;;19.90;99.90;;;;;;6228729;28;20672;-65
2022/07/17 02:16:01;;;;;;;7.83;7.03;;;19.90;99.90;;;;;;6220137;28;20298;-65
2022/07/17 02:19:04;;;;;;;7.03;6.53;;;19.90;99.90;;;;;;6228968;28;20711;-65
2022/07/17 02:22:07;;;;;;;7.00;6.50;;;19.90;99.90;;;;;;6228789;28;20236;-65
2022/07/17 02:25:13;;;;;;;6.57;6.07;;;19.90;99.90;;;;;;6229558;28;20233;-65
2022/07/17 02:28:16;;;;;;;7.50;6.97;;;19.80;99.90;;;;;;6229303;28;20233;-65
2022/07/17 02:31:19;;;;;;;6.60;6.13;;;19.80;99.90;;;;;;6228062;28;20225;-66
2022/07/17 02:34:22;;;;;;;6.97;6.37;;;19.80;99.90;;;;;;6228260;28;20237;-65
2022/07/17 02:37:25;;;;;;;7.00;6.43;;;19.80;99.90;;;;;;6228485;28;20236;-65
2022/07/17 02:40:30;;;;;;;7.50;6.83;;;19.80;99.90;;;;;;6228371;28;20252;-65
2022/07/17 02:43:33;;;;;;;7.20;6.60;;;19.80;99.90;;;;;;6228028;28;20232;-64
2022/07/17 02:46:36;;;;;;;7.10;6.23;;;19.70;99.90;;;;;;6228378;28;20233;-64
2022/07/17 02:49:39;;;;;;;6.87;6.13;;;19.70;99.90;;;;;;6228128;28;20248;-64
2022/07/17 02:52:43;;;;;;;6.80;6.30;;;19.70;99.90;;;;;;6227855;28;20704;-65
2022/07/17 02:55:48;;;;;;;11.30;7.00;;;19.70;99.90;;;;;;6227904;28;20240;-65
2022/07/17 02:58:51;;;;;;;7.13;6.53;;;19.60;99.90;;;;;;6227554;28;20727;-65
2022/07/17 03:01:54;;;;;;;6.40;5.90;;;19.50;99.90;;;;;;6228008;28;20243;-65
2022/07/17 03:04:58;;;;;;;7.10;6.60;;;19.40;99.90;;;;;;6227818;28;20233;-64
2022/07/17 03:08:01;;;;;;;7.60;6.47;;;19.30;99.90;;;;;;6227539;28;20240;-64
2022/07/17 03:11:05;;;;;;;6.77;6.17;;;19.30;99.90;;;;;;6227645;28;20228;-64
2022/07/17 03:14:09;;;;;;;6.33;5.80;;;19.30;99.90;;;;;;6227272;28;20255;-64
2022/07/17 03:17:14;;;;;;;6.27;5.80;;;19.30;99.90;;;;;;6227443;28;20228;-64
2022/07/17 03:20:18;;;;;;;5.90;5.40;;;19.20;99.90;;;;;;6222358;28;20613;-64
2022/07/17 03:23:21;;;;;;;7.47;6.87;;;19.20;99.90;;;;;;6226963;28;20251;-64
2022/07/17 03:26:25;;;;;;;6.40;5.90;;;19.30;99.90;;;;;;6227306;28;20267;-64
2022/07/17 03:29:29;;;;;;;6.37;5.87;;;19.30;99.90;;;;;;6226539;28;20576;-64
2022/07/17 03:32:32;;;;;;;6.07;5.60;;;19.40;99.90;;;;;;6226725;28;20248;-64
2022/07/17 03:35:35;;;;;;;6.00;5.60;;;19.50;99.90;;;;;;6226884;28;20244;-64
2022/07/17 03:38:38;;;;;;;7.10;6.40;;;19.50;99.90;;;;;;6226588;28;20237;-65
2022/07/17 03:41:43;;;;;;;6.93;6.23;;;19.50;99.90;;;;;;6229071;28;20248;-65
2022/07/17 03:44:46;;;;;;;6.50;5.93;;;19.40;99.90;;;;;;6229806;28;20221;-65
2022/07/17 03:47:49;;;;;;;6.10;5.60;;;19.50;99.90;;;;;;6228594;28;20225;-65
2022/07/17 03:50:52;;;;;;;5.90;5.40;;;19.40;99.90;;;;;;6227016;28;20331;-66
2022/07/17 03:53:55;;;;;;;6.07;5.67;;;19.40;99.90;;;;;;6226721;28;20225;-66
2022/07/17 03:57:00;;;;;;;6.37;5.80;;;19.50;99.90;;;;;;6226492;28;20225;-66
2022/07/17 04:00:04;;;;;;;5.90;5.50;;;19.50;99.90;;;;;;6226177;28;20632;-66
2022/07/17 04:03:07;;;;;;;6.43;5.93;;;19.50;99.90;;;;;;6226560;28;20256;-66
2022/07/17 04:06:11;;;;;;;6.40;5.80;;;19.50;99.90;;;;;;6226123;28;20232;-66
2022/07/17 04:09:14;;;;;;;6.87;6.37;;;19.50;99.90;;;;;;6225779;28;20233;-66
2022/07/17 04:12:18;;;;;;;7.03;6.43;;;19.60;99.90;;;;;;6226018;28;20229;-66
2022/07/17 04:18:39;;;;;;;6.37;5.87;;;19.70;99.90;;;;;;6224818;28;20237;-66
2022/07/17 04:21:42;;;;;;;7.03;6.53;;;19.80;99.90;;;;;;6226209;28;20220;-66
2022/07/17 04:24:45;;;;;;;7.43;6.77;;;20.00;99.90;;;;;;6216761;28;20567;-66
2022/07/17 04:27:50;;;;;;;6.33;5.73;;;20.00;99.90;;;;;;6226067;28;20244;-66
2022/07/17 04:30:53;;;;;;;6.17;5.77;;;20.20;99.90;;;;;;6226168;28;20236;-65
2022/07/17 04:33:56;;;;;;;6.50;6.00;;;20.40;99.90;;;;;;6225746;28;20240;-65
2022/07/17 04:37:00;;;;;;;6.13;5.53;;;20.70;99.90;;;;;;6225907;28;20232;-65
2022/07/17 04:40:04;;;;;;;6.30;5.60;;;20.90;99.90;;;;;;6225092;28;20675;-65
2022/07/17 04:43:08;;;;;;;6.07;5.57;;;21.00;99.90;;;;;;6224397;28;20247;-65
2022/07/17 04:46:11;;;;;;;6.23;5.63;;;21.10;99.90;;;;;;6224358;28;20304;-65
2022/07/17 04:49:15;;;;;;;6.60;5.80;;;21.20;99.90;;;;;;6224359;28;20304;-66
2022/07/17 04:52:18;;;;;;;6.70;6.20;;;21.30;99.90;;;;;;6224505;28;20231;-63
2022/07/17 04:55:21;;;;;;;3.90;3.70;;;21.30;99.60;;;;;;6221209;28;20247;-63
2022/07/17 04:58:26;;;;;;;3.70;3.40;;;21.40;98.70;;;;;;6224084;28;20667;-65
2022/07/17 05:01:29;;;;;;;3.80;3.43;;;21.50;95.50;;;;;;6223958;28;20687;-65
2022/07/17 05:04:33;;;;;;;7.30;4.00;;;21.60;94.60;;;;;;6222186;28;20244;-65
2022/07/17 05:07:36;;;;;;;3.80;3.40;;;21.70;92.80;;;;;;6225072;28;20590;-65
2022/07/17 05:10:40;;;;;;;4.77;3.73;;;21.80;92.80;;;;;;6225223;28;20247;-64
2022/07/17 05:13:44;;;;;;;4.90;4.03;;;21.80;92.20;;;;;;6224933;28;20674;-65
2022/07/17 05:16:47;;;;;;;5.27;4.00;;;21.90;93.00;;;;;;6225448;28;20229;-65
2022/07/17 05:19:51;;;;;;;9.40;3.90;;;21.90;93.70;;;;;;6225118;28;20237;-66
2022/07/17 05:22:54;;;;;;;6.13;3.80;;;22.00;93.60;;;;;;6225227;28;20233;-66
2022/07/17 05:25:58;;;;;;;4.10;3.80;;;22.10;93.50;;;;;;6224911;28;20228;-66
2022/07/17 05:29:02;;;;;;;3.80;3.50;;;22.10;92.40;;;;;;6215933;28;20237;-66
2022/07/17 05:32:06;;;;;;;4.10;3.80;;;22.10;92.00;;;;;;6224827;28;20247;-66
2022/07/17 05:35:09;;;;;;;3.50;3.30;;;22.10;91.90;;;;;;6224945;28;20240;-66
2022/07/17 05:38:13;;;;;;;3.80;3.27;;;22.10;91.90;;;;;;6224836;28;20308;-66
2022/07/17 05:41:16;;;;;;;4.00;3.20;;;21.90;91.30;;;;;;6224544;28;20527;-68
2022/07/17 05:44:20;;;;;;;3.57;3.27;;;21.80;91.80;;;;;;6225274;28;20655;-67
2022/07/17 05:47:23;;;;;;;3.60;2.70;;;21.50;91.50;;;;;;6224750;28;20229;-67
2022/07/17 05:50:27;;;;;;;2.10;2.00;;;21.40;91.10;;;;;;6224724;28;20238;-68
2022/07/17 05:53:30;;;;;;;5.73;2.67;;;21.50;89.20;;;;;;6224753;28;20233;-68
2022/07/17 05:56:33;;;;;;;4.33;2.50;;;21.60;87.50;;;;;;6224720;28;20248;-68
2022/07/17 05:59:38;;;;;;;2.93;2.40;;;21.80;87.10;;;;;;6224254;28;20241;-68
2022/07/17 06:02:42;;;;;;;2.60;2.40;;;22.00;84.50;;;;;;6224396;28;20229;-67
2022/07/17 06:05:45;;;;;;;2.40;2.17;;;22.30;84.30;;;;;;6223952;28;20228;-67
2022/07/17 06:08:48;;;;;;;4.63;2.57;;;22.80;83.30;;;;;;6227324;28;20229;-67
2022/07/17 06:11:51;;;;;;;2.60;2.20;;;23.20;80.80;;;;;;6202820;28;20232;-67
2022/07/17 06:14:56;;;;;;;2.73;2.53;;;23.90;79.30;;;;;;6206603;28;20644;-67
2022/07/17 06:18:01;;;;;;;3.00;2.80;;;24.20;77.60;;;;;;6203597;28;20232;-66
2022/07/17 06:21:04;;;;;;;2.70;2.50;;;24.10;77.30;;;;;;6204252;28;20245;-68
2022/07/17 06:24:08;;;;;;;2.80;2.60;;;24.40;75.50;;;;;;6203921;28;20244;-68
2022/07/17 06:27:11;;;;;;;3.23;2.70;;;24.80;73.20;;;;;;6204987;28;20687;-67
2022/07/17 06:30:17;;;;;;;3.70;2.60;;;25.00;73.00;;;;;;6205312;28;20706;-67
2022/07/17 06:33:21;;;;;;;6.00;2.30;;;25.50;69.70;;;;;;6197125;28;20260;-68
2022/07/17 06:36:24;;;;;;;3.40;2.63;;;26.00;66.80;;;;;;6210416;28;20239;-69
2022/07/17 06:39:27;;;;;;;2.87;2.67;;;25.80;65.50;;;;;;6206326;28;20225;-67
2022/07/17 06:42:30;;;;;;;2.80;2.40;;;26.30;64.10;;;;;;6204303;28;20550;-67
2022/07/17 06:45:35;;;;;;;3.87;2.63;;;26.90;61.70;;;;;;6203797;28;20232;-67
2022/07/17 06:48:38;;;;;;;4.87;2.33;;;27.10;59.40;;;;;;6203800;28;20229;-67
2022/07/17 06:51:45;;;;;;;3.70;2.13;;;26.50;60.50;;;;;;6203712;28;20210;-67
2022/07/17 06:54:48;;;;;;;4.27;2.60;;;25.70;61.00;;;;;;6204052;28;20233;-67
2022/07/17 06:57:54;;;;;;;2.93;2.40;;;25.00;64.00;;;;;;6203408;28;20667;-68
2022/07/17 07:00:59;;;;;;;2.43;2.17;;;26.20;62.90;;;;;;6203353;28;20233;-67
2022/07/17 07:04:02;;;;;;;2.00;1.80;;;26.20;60.30;;;;;;6203353;28;20280;-67
2022/07/17 07:07:05;;;;;;;2.70;2.50;;;26.10;61.00;;;;;;6203479;28;20236;-68
2022/07/17 07:10:09;;;;;;;2.80;2.30;;;26.30;62.40;;;;;;6203355;28;20380;-66
2022/07/17 07:13:13;;;;;;;3.73;2.50;;;27.40;59.60;;;;;;6202792;28;20224;-66
2022/07/17 07:16:18;;;;;;;3.33;2.10;;;28.60;56.60;;;;;;6202931;28;20367;-67
2022/07/17 07:19:21;;;;;;;2.23;2.03;;;29.70;54.40;;;;;;6201998;28;20241;-68
2022/07/17 07:22:24;;;;;;;3.87;2.00;;;30.00;52.70;;;;;;6202851;28;20243;-68
2022/07/17 07:25:27;;;;;;;2.67;2.47;;;30.80;51.40;;;;;;6202555;28;20239;-69
2022/07/17 07:28:30;;;;;;;3.00;2.10;;;31.50;48.40;;;;;;6202359;28;20683;-68
2022/07/17 07:31:35;;;;;;;2.78;2.30;;;31.40;48.20;;;;;;6202546;28;20229;-69
2022/07/17 07:34:38;;;;;;;1.70;1.60;;;32.30;46.30;;;;;;6198458;28;20229;-69
2022/07/17 07:37:42;;;;;;;2.60;2.00;;;32.70;45.50;;;;;;6202597;28;20232;-69
2022/07/17 07:40:45;;;;;;;2.70;1.80;;;34.20;43.70;;;;;;6202601;28;20677;-68
2022/07/17 07:43:48;;;;;;;2.83;1.60;;;34.60;41.90;;;;;;6202618;28;20240;-68
2022/07/17 07:46:53;;;;;;;2.78;1.58;;;34.40;40.10;;;;;;6202614;28;20309;-68
2022/07/17 07:49:56;;;;;;;5.25;2.45;;;34.50;40.00;;;;;;6202766;28;20245;-67
2022/07/17 07:52:59;;;;;;;2.97;1.98;;;34.80;40.40;;;;;;6202367;28;20244;-67
2022/07/17 07:56:03;;;;;;;3.33;2.25;;;34.70;40.60;;;;;;6202390;28;20581;-70
2022/07/17 07:59:06;;;;;;;2.70;2.50;;;35.30;39.70;;;;;;6201722;28;20237;-69
2022/07/17 08:02:11;;;;;;;2.40;2.20;;;36.10;38.70;;;;;;6202412;28;20240;-70
2022/07/17 08:05:14;;;;;;;4.47;2.92;;;36.60;37.40;;;;;;6202613;28;20301;-69
2022/07/17 08:08:17;;;;;;;2.15;2.03;;;36.70;36.90;;;;;;6202407;28;20229;-68
2022/07/17 08:11:21;;;;;;;5.45;2.47;;;36.60;36.90;;;;;;6201746;28;20736;-68
2022/07/17 08:14:24;;;;;;;3.92;2.28;;;35.70;37.40;;;;;;6201947;28;20272;-68
2022/07/17 08:17:29;;;;;;;5.38;2.70;;;35.20;37.70;;;;;;6201423;28;20237;-68
2022/07/17 08:20:32;;;;;;;3.95;2.10;;;34.30;38.00;;;;;;6201529;28;20549;-68
2022/07/17 08:23:35;;;;;;;2.63;2.05;;;33.30;40.00;;;;;;6201242;28;20236;-68
2022/07/17 08:26:38;;;;;;;3.10;2.70;;;32.60;40.40;;;;;;6201644;28;20225;-69
2022/07/17 08:29:41;;;;;;;3.78;2.70;;;31.60;42.30;;;;;;6200935;28;20574;-68
2022/07/17 08:33:06;;;;;;;3.17;2.45;;;30.90;43.10;;;;;;6201622;28;20308;-68
2022/07/17 08:36:09;;;;;;;4.05;2.45;;;30.10;44.20;;;;;;6201238;28;20225;-70
2022/07/17 08:39:12;;;;;;;3.05;2.45;;;30.00;45.20;;;;;;6201245;28;20244;-68
2022/07/17 08:42:16;;;;;;;4.73;2.40;;;29.40;45.50;;;;;;6201145;28;20233;-68
2022/07/17 08:45:20;;;;;;;2.60;2.40;;;28.50;47.30;;;;;;6201240;28;20235;-70
2022/07/17 08:48:27;;;;;;;2.60;2.40;;;28.30;48.30;;;;;;6201534;28;20248;-69
2022/07/17 08:51:31;;;;;;;3.10;2.20;;;28.00;48.80;;;;;;6225574;28;20216;-68
2022/07/17 08:54:34;;;;;;;4.10;3.10;;;28.10;48.90;;;;;;6225355;28;20539;-71
2022/07/17 08:57:40;;;;;;;2.80;2.60;;;27.80;49.20;;;;;;6225117;28;20235;-68
2022/07/17 09:00:49;;;;;;;3.13;2.83;;;27.70;50.20;;;;;;6225029;28;20224;-70
2022/07/17 09:03:59;;;;;;;4.90;2.60;;;27.70;50.70;;;;;;6225480;28;20235;-69
2022/07/17 09:07:05;;;;;;;4.10;2.57;;;27.80;50.80;;;;;;6225318;28;20298;-68
2022/07/17 09:10:09;;;;;;;2.97;2.40;;;27.50;50.60;;;;;;6217269;28;20666;-68
2022/07/17 09:13:18;;;;;;;3.60;3.30;;;27.20;51.40;;;;;;6200362;28;20678;-68
2022/07/17 09:16:21;;;;;;;2.80;2.60;;;27.30;51.60;;;;;;6208293;28;20237;-68
2022/07/17 09:19:27;;;;;;;3.30;2.60;;;27.40;52.30;;;;;;6224033;28;20235;-68
2022/07/17 09:22:30;;;;;;;2.97;2.70;;;27.20;51.70;;;;;;6223890;28;20235;-68
2022/07/17 09:25:38;;;;;;;2.87;2.60;;;27.10;52.20;;;;;;6224738;28;20311;-69
2022/07/17 09:28:46;;;;;;;2.53;2.33;;;26.90;52.80;;;;;;6224801;28;20244;-69
2022/07/17 09:31:53;;;;;;;2.90;2.70;;;26.90;52.50;;;;;;6225392;28;20224;-68
2022/07/17 09:34:59;;;;;;;2.93;2.53;;;26.70;53.50;;;;;;6224714;28;20240;-67
2022/07/17 09:38:02;;;;;;;2.50;2.30;;;26.90;53.20;;;;;;6224814;28;20228;-66
2022/07/17 09:41:11;;;;;;;3.50;2.40;;;27.10;53.00;;;;;;6226637;28;20303;-67
2022/07/17 09:44:15;;;;;;;3.60;2.90;;;27.10;52.60;;;;;;6220752;28;20236;-66
2022/07/17 09:47:18;;;;;;;3.33;3.13;;;27.20;52.80;;;;;;6229279;28;20650;-67
2022/07/17 09:50:24;;;;;;;3.10;2.53;;;27.40;52.20;;;;;;6228830;28;20693;-66
2022/07/17 09:53:27;;;;;;;3.47;2.50;;;27.60;51.40;;;;;;6229148;28;20243;-67
2022/07/17 09:56:32;;;;;;;3.07;2.67;;;27.00;51.60;;;;;;6228713;28;20236;-67
2022/07/17 09:59:37;;;;;;;2.70;2.50;;;26.70;52.20;;;;;;6229167;28;20251;-68
2022/07/17 10:02:41;;;;;;;4.40;2.50;;;26.90;52.00;;;;;;6229116;28;20541;-67
2022/07/17 10:05:47;;;;;;;2.70;2.50;;;27.00;52.30;;;;;;6228898;28;20240;-67
2022/07/17 10:08:50;;;;;;;3.10;2.17;;;27.10;52.00;;;;;;6228309;28;20247;-67
2022/07/17 10:11:54;;;;;;;2.90;2.43;;;27.10;51.90;;;;;;6228114;28;20284;-67
2022/07/17 10:14:58;;;;;;;2.63;2.37;;;27.30;52.10;;;;;;6228023;28;20232;-67
2022/07/17 10:18:05;;;;;;;3.10;2.40;;;27.30;51.60;;;;;;6227957;28;20274;-66
2022/07/17 10:21:15;;;;;;;2.67;2.17;;;27.40;51.80;;;;;;6228470;28;20232;-65
2022/07/17 10:24:18;;;;;;;2.87;2.63;;;27.30;51.20;;;;;;6228169;28;20248;-66
2022/07/17 10:27:23;;;;;;;2.77;2.57;;;27.30;52.00;;;;;;6227785;28;20228;-65
2022/07/17 10:30:27;;;;;;;3.33;2.87;;;27.10;51.80;;;;;;6227475;28;20232;-65
2022/07/17 10:33:31;;;;;;;2.53;2.33;;;26.90;52.60;;;;;;6227170;28;20228;-64
2022/07/17 10:36:40;;;;;;;3.07;2.77;;;26.90;52.50;;;;;;6228355;28;20229;-64
2022/07/17 10:39:54;;;;;;;3.03;2.83;;;26.90;52.50;;;;;;6229102;28;20224;-64
2022/07/17 10:42:59;;;;;;;2.73;2.53;;;26.80;52.20;;;;;;6230659;28;20273;-64
2022/07/17 10:46:02;;;;;;;3.07;2.87;;;27.00;53.00;;;;;;6248823;28;20228;-65
2022/07/17 10:49:07;;;;;;;2.83;2.63;;;27.00;52.30;;;;;;6237732;28;20670;-65
2022/07/17 10:52:13;;;;;;;3.63;2.47;;;27.00;52.30;;;;;;6227062;28;20551;-65
2022/07/17 10:55:21;;;;;;;2.70;2.50;;;26.10;53.70;;;;;;6227519;28;20272;-65
2022/07/17 10:58:27;;;;;;;4.90;2.60;;;26.00;54.20;;;;;;6227115;28;20284;-65
2022/07/17 11:01:31;;;;;;;3.43;2.57;;;26.40;54.20;;;;;;6227129;28;20656;-65
2022/07/17 11:04:39;;;;;;;3.90;2.90;;;26.60;54.20;;;;;;6227302;28;20236;-65
2022/07/17 11:07:52;;;;;;;4.80;2.50;;;26.90;53.30;;;;;;6227289;28;20217;-65
2022/07/17 11:10:55;;;;;;;3.10;2.67;;;27.20;52.20;;;;;;6213945;28;20240;-65
2022/07/17 11:14:09;;;;;;;2.87;2.57;;;27.50;51.60;;;;;;6202760;28;20682;-65
2022/07/17 11:17:12;;;;;;;5.50;2.70;;;27.90;51.70;;;;;;6199794;28;20265;-65
2022/07/17 11:20:20;;;;;;;2.53;2.33;;;27.70;51.70;;;;;;6202817;28;20583;-65
2022/07/17 11:23:26;;;;;;;3.70;2.63;;;27.60;52.00;;;;;;6201976;28;20232;-65
2022/07/17 11:26:30;;;;;;;2.80;2.43;;;27.90;51.70;;;;;;6202312;28;20221;-65
2022/07/17 11:29:37;;;;;;;3.90;3.60;;;28.00;51.60;;;;;;6202227;28;20667;-66
2022/07/17 11:32:41;;;;;;;3.20;2.90;;;28.00;50.90;;;;;;6202762;28;20239;-67
2022/07/17 11:35:47;;;;;;;3.73;3.07;;;28.00;50.70;;;;;;6202588;28;20233;-66
2022/07/17 11:38:52;;;;;;;4.03;2.83;;;28.40;50.70;;;;;;6202162;28;20244;-66
2022/07/17 11:41:57;;;;;;;3.10;2.43;;;28.40;51.10;;;;;;6202683;28;20563;-66
2022/07/17 11:45:00;;;;;;;2.90;2.70;;;28.10;51.00;;;;;;6203102;28;20229;-66
2022/07/17 11:48:04;;;;;;;2.60;2.40;;;28.10;50.90;;;;;;6202068;28;20225;-66
2022/07/17 11:51:07;;;;;;;2.60;2.23;;;28.40;51.10;;;;;;6201923;28;20551;-66
2022/07/17 11:54:13;;;;;;;2.90;2.60;;;28.50;50.50;;;;;;6192752;28;20306;-66
2022/07/17 11:57:18;;;;;;;3.87;2.63;;;28.50;50.30;;;;;;6202026;28;20542;-68
2022/07/17 12:00:21;;;;;;;3.33;3.03;;;28.80;50.20;;;;;;6201557;28;20233;-66
2022/07/17 12:03:26;;;;;;;2.73;2.47;;;28.50;49.50;;;;;;6201534;28;20229;-66
2022/07/17 12:06:30;;;;;;;3.10;2.27;;;28.50;50.70;;;;;;6201130;28;20212;-66
2022/07/17 12:09:35;;;;;;;2.30;2.10;;;28.70;50.00;;;;;;6201817;28;20316;-65
2022/07/17 12:12:38;;;;;;;3.10;2.80;;;28.70;50.10;;;;;;6203005;28;20209;-65
2022/07/17 12:15:44;;;;;;;2.97;2.73;;;28.70;49.70;;;;;;6225968;28;20215;-65
2022/07/17 12:18:57;;;;;;;5.30;2.90;;;28.30;51.10;;;;;;6223434;28;21187;-65
2022/07/17 12:22:03;;;;;;;3.97;3.03;;;27.80;51.30;;;;;;6201773;28;20270;-66
2022/07/17 12:25:08;;;;;;;2.93;2.73;;;27.90;52.00;;;;;;6201923;28;20229;-66
2022/07/17 12:28:11;;;;;;;5.80;3.30;;;28.00;51.80;;;;;;6201452;28;20304;-66
2022/07/17 12:31:15;;;;;;;8.43;3.10;;;27.80;51.30;;;;;;6201184;28;20229;-66
2022/07/17 12:34:18;;;;;;;2.70;2.50;;;26.90;53.50;;;;;;6199643;28;20233;-67
2022/07/17 12:37:22;;;;;;;3.00;2.63;;;26.80;53.80;;;;;;6200690;28;20551;-66
2022/07/17 12:40:27;;;;;;;5.03;2.23;;;27.00;53.20;;;;;;6200011;28;20244;-66
2022/07/17 12:43:31;;;;;;;2.90;2.47;;;27.10;52.90;;;;;;6200595;28;20236;-66
2022/07/17 12:46:34;;;;;;;3.90;2.53;;;27.40;53.20;;;;;;6201114;28;20228;-66
2022/07/17 12:49:39;;;;;;;3.30;3.00;;;27.60;53.40;;;;;;6201161;28;20383;-66
2022/07/17 12:52:44;;;;;;;3.30;2.33;;;27.70;53.10;;;;;;6202149;28;20314;-66
2022/07/17 12:55:49;;;;;;;3.10;2.80;;;27.80;52.90;;;;;;6201695;28;20239;-66
2022/07/17 12:58:52;;;;;;;3.93;2.67;;;28.00;52.80;;;;;;6200811;28;20682;-66
2022/07/17 13:02:03;;;;;;;3.93;3.00;;;27.70;52.90;;;;;;6201306;28;20332;-66
2022/07/17 13:05:08;;;;;;;4.63;3.20;;;27.60;52.90;;;;;;6201442;28;20232;-66
2022/07/17 13:08:12;;;;;;;3.27;2.93;;;27.40;52.80;;;;;;6200819;28;20235;-66
2022/07/17 13:11:16;;;;;;;2.93;2.73;;;27.40;53.20;;;;;;6200378;28;20573;-66
2022/07/17 13:14:19;;;;;;;2.80;2.60;;;27.50;52.70;;;;;;6199185;28;20569;-66
2022/07/17 13:17:23;;;;;;;3.17;2.90;;;27.60;52.90;;;;;;6204206;28;20327;-67
2022/07/17 13:20:26;;;;;;;3.83;2.47;;;27.50;52.90;;;;;;6205409;28;20229;-66
2022/07/17 13:23:29;;;;;;;3.13;2.83;;;27.60;53.00;;;;;;6205123;28;20233;-67
2022/07/17 13:26:33;;;;;;;2.90;2.50;;;27.80;52.80;;;;;;6204940;28;20228;-67
2022/07/17 13:29:37;;;;;;;3.07;2.87;;;28.00;53.00;;;;;;6205137;28;20260;-66
2022/07/17 13:32:41;;;;;;;3.10;2.80;;;28.00;52.70;;;;;;6205570;28;20694;-67
2022/07/17 13:35:44;;;;;;;3.80;3.40;;;28.00;53.30;;;;;;6204961;28;20225;-67
2022/07/17 13:38:47;;;;;;;3.53;3.10;;;27.80;53.00;;;;;;6204520;28;20235;-65
2022/07/17 13:41:52;;;;;;;2.90;2.70;;;27.90;52.50;;;;;;6204881;28;20225;-65
2022/07/17 13:44:55;;;;;;;2.83;2.63;;;27.70;52.20;;;;;;6202082;28;20691;-65
2022/07/17 13:47:59;;;;;;;2.83;2.47;;;27.60;53.00;;;;;;6204482;28;20221;-65
2022/07/17 13:51:02;;;;;;;3.57;3.27;;;27.50;53.80;;;;;;6204464;28;20221;-67
2022/07/17 13:54:06;;;;;;;3.30;3.10;;;27.40;54.30;;;;;;6203879;28;20237;-65
2022/07/17 13:57:11;;;;;;;3.47;3.07;;;27.20;54.00;;;;;;6203660;28;20563;-65
2022/07/17 14:00:15;;;;;;;4.50;2.97;;;27.20;54.90;;;;;;6199214;28;20680;-66
2022/07/17 14:03:18;;;;;;;2.97;2.67;;;27.30;55.10;;;;;;6201800;28;20225;-65
2022/07/17 14:06:21;;;;;;;3.80;3.43;;;27.50;55.10;;;;;;6204175;28;20232;-65
2022/07/17 14:09:24;;;;;;;4.00;3.00;;;27.60;54.40;;;;;;6203816;28;20235;-65
2022/07/17 14:12:29;;;;;;;3.50;3.20;;;27.50;54.60;;;;;;6204999;28;20236;-65
2022/07/17 14:15:32;;;;;;;4.87;3.30;;;27.20;54.90;;;;;;6205083;28;20236;-65
2022/07/17 14:18:57;;;;;;;3.37;2.83;;;27.20;55.90;;;;;;6226940;28;20358;-65
2022/07/17 14:21:59;;;;;;;3.80;3.20;;;27.30;55.30;;;;;;6204562;28;20308;-65
2022/07/17 14:25:02;;;;;;;3.37;3.10;;;27.20;55.40;;;;;;6204448;28;20221;-65
2022/07/17 14:28:08;;;;;;;3.43;3.13;;;27.20;55.80;;;;;;6203503;28;20225;-67
2022/07/17 14:31:11;;;;;;;3.50;3.13;;;27.20;56.40;;;;;;6204780;28;20240;-69
2022/07/17 14:34:14;;;;;;;3.30;2.83;;;27.30;56.70;;;;;;6204469;28;20240;-67
2022/07/17 14:37:17;;;;;;;3.20;2.90;;;27.40;56.30;;;;;;6204603;28;20236;-67
2022/07/17 14:40:20;;;;;;;4.67;3.43;;;27.50;56.10;;;;;;6204264;28;20283;-66
2022/07/17 14:43:25;;;;;;;5.43;3.10;;;27.60;56.60;;;;;;6205509;28;20229;-67
2022/07/17 14:46:28;;;;;;;3.63;3.17;;;27.40;56.80;;;;;;6205664;28;20240;-66
2022/07/17 14:49:32;;;;;;;5.43;3.40;;;27.10;56.80;;;;;;6213139;28;20648;-66
2022/07/17 14:52:35;;;;;;;4.00;2.83;;;27.10;57.40;;;;;;6225030;28;20235;-66
2022/07/17 14:55:39;;;;;;;4.00;3.57;;;27.30;57.10;;;;;;6227288;28;20224;-65
2022/07/17 14:58:44;;;;;;;4.00;3.70;;;27.60;56.60;;;;;;6227268;28;20241;-66
2022/07/17 15:01:47;;;;;;;2.67;2.47;;;27.70;56.10;;;;;;6227745;28;20425;-66
2022/07/17 15:04:50;;;;;;;3.67;3.37;;;27.70;56.60;;;;;;6227976;28;20282;-65
2022/07/17 15:07:53;;;;;;;3.47;3.27;;;27.50;56.30;;;;;;6226995;28;20219;-65
2022/07/17 15:10:56;;;;;;;3.17;2.87;;;27.60;55.90;;;;;;6226775;28;20216;-66
2022/07/17 15:14:02;;;;;;;3.23;3.03;;;27.60;56.40;;;;;;6224391;28;20266;-66
2022/07/17 15:17:05;;;;;;;3.80;3.00;;;27.80;56.20;;;;;;6226863;28;20235;-66
2022/07/17 15:20:09;;;;;;;4.10;3.10;;;27.70;56.70;;;;;;6213165;28;20229;-67
2022/07/17 15:23:13;;;;;;;6.90;3.00;;;27.70;56.70;;;;;;6200689;28;20774;-67
2022/07/17 15:26:16;;;;;;;3.23;2.93;;;27.70;56.80;;;;;;6201301;28;20631;-67
2022/07/17 15:29:21;;;;;;;3.27;2.97;;;27.80;56.40;;;;;;6202580;28;20229;-67
2022/07/17 15:32:24;;;;;;;3.83;3.53;;;28.00;56.30;;;;;;6202540;28;20844;-66
2022/07/17 15:35:28;;;;;;;3.43;3.00;;;28.10;55.60;;;;;;6201814;28;20251;-67
2022/07/17 15:38:31;;;;;;;3.13;2.93;;;28.10;55.80;;;;;;6201660;28;20236;-67
2022/07/17 15:41:34;;;;;;;3.47;3.03;;;28.10;55.70;;;;;;6202510;28;20239;-67
2022/07/17 15:44:39;;;;;;;3.50;3.20;;;28.00;55.40;;;;;;6200997;28;20240;-68
2022/07/17 15:47:42;;;;;;;3.33;3.13;;;28.10;55.20;;;;;;6199487;28;20217;-67
2022/07/17 15:50:45;;;;;;;3.77;3.47;;;28.00;55.10;;;;;;6201479;28;20586;-67
2022/07/17 15:53:49;;;;;;;3.30;3.10;;;27.90;55.50;;;;;;6201694;28;20236;-70
2022/07/17 15:56:52;;;;;;;4.00;3.70;;;28.00;55.10;;;;;;6202593;28;20247;-69
2022/07/17 15:59:56;;;;;;;3.80;3.50;;;28.00;54.50;;;;;;6201492;28;20232;-68
2022/07/17 16:03:00;;;;;;;3.57;3.03;;;28.10;54.60;;;;;;6202769;28;20229;-66